Time;durP1;ratioP1;P1;durP2;ratioP2;P2;SDS_P1;SDS_P2;PMS_P1;PMS_P2;Temp;Humidity;BMP_temperature;BMP_pressure;BME280_temperature;BME280_humidity;BME280_pressure;Samples;Min_cycle;Max_cycle;Signal;HPM_P1;HPM_P2
2023/12/31 00:00:43;;;;;;;78.85;46.45;;;8.60;99.90;;;;;;4975559;28;20033;-83
2023/12/31 00:03:10;;;;;;;71.90;44.20;;;8.50;99.90;;;;;;4975760;28;20046;-84
2023/12/31 00:05:36;;;;;;;73.78;44.75;;;8.50;99.90;;;;;;4959585;28;20030;-83
2023/12/31 00:08:03;;;;;;;78.32;46.03;;;8.50;99.90;;;;;;4990270;28;20038;-84
2023/12/31 00:10:30;;;;;;;76.47;44.65;;;8.40;99.90;;;;;;4976005;28;20027;-83
2023/12/31 00:12:56;;;;;;;81.55;47.25;;;8.40;99.90;;;;;;4992136;28;20034;-84
2023/12/31 00:15:26;;;;;;;79.85;46.38;;;8.40;99.90;;;;;;4968440;28;20027;-84
2023/12/31 00:17:52;;;;;;;97.63;49.95;;;8.30;99.90;;;;;;4956647;29;20051;-84
2023/12/31 00:20:19;;;;;;;94.22;51.92;;;8.40;99.90;;;;;;4956650;29;20031;-83
2023/12/31 00:22:45;;;;;;;82.13;49.22;;;8.30;99.90;;;;;;4956003;28;20043;-84
2023/12/31 00:25:12;;;;;;;87.22;48.70;;;8.30;99.90;;;;;;4975742;28;20026;-84
2023/12/31 00:27:38;;;;;;;84.60;49.40;;;8.30;99.90;;;;;;4976590;28;20034;-83
2023/12/31 00:30:05;;;;;;;82.95;48.78;;;8.30;99.90;;;;;;4975603;28;20082;-83
2023/12/31 00:32:32;;;;;;;85.30;50.28;;;8.30;99.90;;;;;;4975391;28;20122;-84
2023/12/31 00:34:58;;;;;;;85.25;49.28;;;8.30;99.90;;;;;;4975096;28;20094;-83
2023/12/31 00:37:25;;;;;;;96.28;53.85;;;8.30;99.90;;;;;;4991088;28;20089;-84
2023/12/31 00:39:52;;;;;;;95.50;53.85;;;8.30;99.90;;;;;;4974010;28;20440;-83
2023/12/31 00:42:18;;;;;;;97.18;55.50;;;8.30;99.90;;;;;;4990918;28;20031;-83
2023/12/31 00:44:44;;;;;;;95.72;54.20;;;8.30;99.90;;;;;;4990895;28;20030;-82
2023/12/31 00:47:11;;;;;;;102.57;59.63;;;8.30;99.90;;;;;;4974847;28;20459;-82
2023/12/31 00:49:37;;;;;;;111.97;60.65;;;8.40;99.90;;;;;;4991221;28;20436;-82
2023/12/31 00:52:04;;;;;;;132.93;65.43;;;8.70;99.90;;;;;;4975055;28;20042;-82
2023/12/31 00:54:31;;;;;;;123.13;63.72;;;8.90;99.90;;;;;;4973924;28;20031;-83
2023/12/31 00:56:59;;;;;;;115.05;60.05;;;9.00;99.90;;;;;;4982876;28;20050;-82
2023/12/31 00:59:25;;;;;;;102.18;57.55;;;9.00;99.90;;;;;;4973404;28;20034;-82
2023/12/31 01:01:54;;;;;;;98.88;56.13;;;8.80;99.90;;;;;;4974639;28;20023;-82
2023/12/31 01:04:21;;;;;;;100.13;55.58;;;8.70;99.90;;;;;;4974961;28;20050;-83
2023/12/31 01:06:47;;;;;;;100.65;54.28;;;8.70;99.90;;;;;;4982338;28;20027;-85
2023/12/31 01:09:14;;;;;;;102.47;55.38;;;8.60;99.90;;;;;;4955087;29;20118;-82
2023/12/31 01:11:43;;;;;;;101.63;56.10;;;8.60;99.90;;;;;;4977475;28;20480;-82
2023/12/31 01:14:13;;;;;;;97.18;55.60;;;8.60;99.90;;;;;;4966298;28;20023;-84
2023/12/31 01:16:40;;;;;;;92.10;54.58;;;8.50;99.90;;;;;;4958249;28;20388;-83
2023/12/31 01:19:09;;;;;;;107.50;57.53;;;8.50;99.90;;;;;;4974238;28;20544;-82
2023/12/31 01:21:37;;;;;;;111.30;58.55;;;8.60;99.90;;;;;;4974701;28;20027;-82
2023/12/31 01:24:04;;;;;;;106.05;58.50;;;8.70;99.90;;;;;;4974285;28;20039;-82
2023/12/31 01:26:30;;;;;;;105.78;59.05;;;8.60;99.90;;;;;;4982547;28;20118;-84
2023/12/31 01:28:56;;;;;;;106.00;58.35;;;8.70;99.90;;;;;;4958785;28;20027;-86
2023/12/31 01:31:24;;;;;;;104.55;58.22;;;8.60;99.90;;;;;;4991044;28;20034;-83
2023/12/31 01:33:52;;;;;;;102.25;57.30;;;8.60;99.90;;;;;;4974006;28;20099;-82
2023/12/31 01:36:24;;;;;;;101.72;55.33;;;8.60;99.90;;;;;;4970837;28;20071;-83
2023/12/31 01:38:56;;;;;;;108.50;56.60;;;8.60;99.90;;;;;;4970638;28;20086;-82
2023/12/31 01:41:23;;;;;;;100.38;56.63;;;8.60;99.90;;;;;;4970719;28;20027;-83
2023/12/31 01:44:03;;;;;;;107.43;60.67;;;8.50;99.90;;;;;;4954382;29;20378;-82
2023/12/31 01:46:35;;;;;;;105.00;60.10;;;8.50;99.90;;;;;;4954160;29;20097;-82
2023/12/31 01:49:10;;;;;;;115.80;62.40;;;8.60;99.90;;;;;;4954394;29;20031;-82
2023/12/31 01:51:39;;;;;;;120.95;64.10;;;8.60;99.90;;;;;;4953838;28;20034;-82
2023/12/31 01:54:09;;;;;;;119.35;62.22;;;8.60;99.90;;;;;;4954583;29;20023;-82
2023/12/31 01:56:39;;;;;;;116.60;61.67;;;8.60;99.90;;;;;;4973827;28;20030;-82
2023/12/31 01:59:07;;;;;;;130.38;67.07;;;8.60;99.90;;;;;;4974077;28;20472;-82
2023/12/31 02:01:36;;;;;;;112.57;63.03;;;8.70;99.90;;;;;;4973776;28;20038;-82
2023/12/31 02:04:02;;;;;;;103.70;61.92;;;8.80;99.90;;;;;;4957343;28;20038;-82
2023/12/31 02:06:29;;;;;;;115.63;66.13;;;8.70;99.90;;;;;;4976389;28;20118;-82
2023/12/31 02:08:55;;;;;;;118.72;62.55;;;8.70;99.90;;;;;;4959434;28;20906;-82
2023/12/31 02:11:22;;;;;;;116.10;63.08;;;8.70;99.90;;;;;;4973834;28;20082;-82
2023/12/31 02:13:48;;;;;;;106.50;59.35;;;8.70;99.90;;;;;;4973681;28;20022;-82
2023/12/31 02:16:15;;;;;;;106.97;59.20;;;8.70;99.90;;;;;;4973028;28;20477;-82
2023/12/31 02:18:42;;;;;;;106.00;60.17;;;8.70;99.90;;;;;;4954251;29;20374;-83
2023/12/31 02:21:12;;;;;;;102.40;60.60;;;8.70;99.90;;;;;;4962789;28;20034;-82
2023/12/31 02:23:39;;;;;;;98.40;58.63;;;8.70;99.90;;;;;;4989699;28;20185;-82
2023/12/31 02:26:11;;;;;;;100.18;59.42;;;8.70;99.90;;;;;;4973317;28;20476;-82
2023/12/31 02:28:38;;;;;;;107.78;61.75;;;8.70;99.90;;;;;;4954156;29;20551;-82
2023/12/31 02:31:07;;;;;;;115.35;65.18;;;8.60;99.90;;;;;;4954974;28;20023;-82
2023/12/31 02:33:35;;;;;;;108.90;63.70;;;8.70;99.90;;;;;;4956673;28;20492;-82
2023/12/31 02:36:05;;;;;;;109.32;64.28;;;8.70;99.90;;;;;;4980995;28;20038;-83
2023/12/31 02:38:31;;;;;;;114.60;65.00;;;8.70;99.90;;;;;;4976509;28;20030;-82
2023/12/31 02:40:58;;;;;;;112.75;63.88;;;8.70;99.90;;;;;;4976297;28;20022;-82
2023/12/31 02:43:24;;;;;;;116.97;65.15;;;8.70;99.90;;;;;;4976374;28;20053;-82
2023/12/31 02:45:51;;;;;;;107.78;60.90;;;8.60;99.90;;;;;;4976832;28;20022;-82
2023/12/31 02:48:18;;;;;;;102.35;60.40;;;8.70;99.90;;;;;;4959124;28;20069;-82
2023/12/31 02:50:44;;;;;;;110.82;61.78;;;8.70;99.90;;;;;;4973183;28;20018;-82
2023/12/31 02:53:10;;;;;;;116.95;64.97;;;8.70;99.90;;;;;;4972711;28;20058;-82
2023/12/31 02:55:37;;;;;;;108.45;62.97;;;8.70;99.90;;;;;;4959986;28;20018;-82
2023/12/31 02:58:04;;;;;;;121.63;64.43;;;8.70;99.90;;;;;;4976155;28;20045;-82
2023/12/31 03:00:30;;;;;;;119.40;66.18;;;8.70;99.90;;;;;;4992483;28;20058;-82
2023/12/31 03:02:57;;;;;;;121.82;66.00;;;8.70;99.90;;;;;;4976817;28;20041;-82
2023/12/31 03:05:23;;;;;;;113.95;63.30;;;8.70;99.90;;;;;;4997688;28;20510;-82
2023/12/31 03:07:49;;;;;;;110.63;63.92;;;8.70;99.90;;;;;;4996293;28;20435;-82
2023/12/31 03:10:18;;;;;;;108.40;62.03;;;8.70;99.90;;;;;;4980018;28;20034;-82
2023/12/31 03:12:45;;;;;;;111.13;62.63;;;8.70;99.90;;;;;;4979966;28;20511;-82
2023/12/31 03:15:11;;;;;;;108.78;59.60;;;8.80;99.90;;;;;;4980247;28;20035;-82
2023/12/31 03:17:38;;;;;;;101.97;59.92;;;8.80;99.90;;;;;;4963974;28;20042;-82
2023/12/31 03:20:10;;;;;;;101.43;57.72;;;8.80;99.90;;;;;;4964000;28;20037;-82
2023/12/31 03:22:37;;;;;;;92.30;55.35;;;8.80;99.90;;;;;;4979503;28;20034;-82
2023/12/31 03:25:04;;;;;;;88.70;52.35;;;8.80;99.90;;;;;;4979843;28;20026;-82
2023/12/31 03:27:31;;;;;;;91.50;55.63;;;8.90;99.90;;;;;;4995987;28;20160;-83
2023/12/31 03:29:57;;;;;;;86.78;51.83;;;8.90;99.90;;;;;;4994570;28;20034;-82
2023/12/31 03:32:26;;;;;;;89.68;49.72;;;8.90;99.90;;;;;;4960282;28;20031;-82
2023/12/31 03:34:53;;;;;;;87.05;50.13;;;8.90;99.90;;;;;;4960118;28;20050;-82
2023/12/31 03:37:21;;;;;;;95.25;52.88;;;8.90;99.90;;;;;;4989794;28;20440;-81
2023/12/31 03:39:50;;;;;;;89.53;49.08;;;8.90;99.90;;;;;;4979613;28;20056;-82
2023/12/31 03:42:16;;;;;;;84.68;47.97;;;8.90;99.90;;;;;;4996777;28;20484;-82
2023/12/31 03:44:43;;;;;;;87.50;49.53;;;9.00;99.90;;;;;;4979393;28;20042;-82
2023/12/31 03:47:09;;;;;;;93.07;54.33;;;9.00;99.90;;;;;;4987503;28;20029;-82
2023/12/31 03:49:36;;;;;;;88.90;51.25;;;8.90;99.90;;;;;;4992364;28;20026;-82
2023/12/31 03:52:06;;;;;;;98.95;55.05;;;8.90;99.90;;;;;;4962995;28;20109;-82
2023/12/31 03:54:33;;;;;;;101.20;52.80;;;8.80;99.90;;;;;;4979450;28;20038;-82
2023/12/31 03:56:59;;;;;;;94.00;53.53;;;8.80;99.90;;;;;;4976434;28;20022;-83
2023/12/31 03:59:26;;;;;;;89.43;51.25;;;8.80;99.90;;;;;;4998171;28;20037;-81
2023/12/31 04:01:58;;;;;;;84.95;48.70;;;8.80;99.90;;;;;;4976057;28;20034;-83
2023/12/31 04:04:29;;;;;;;86.90;49.03;;;8.80;99.90;;;;;;4959819;28;20047;-82
2023/12/31 04:06:55;;;;;;;83.88;48.53;;;8.90;99.90;;;;;;4981519;28;20032;-82
2023/12/31 04:09:22;;;;;;;81.18;46.75;;;8.90;99.90;;;;;;4979066;28;20369;-82
2023/12/31 04:11:48;;;;;;;76.80;47.97;;;9.00;99.90;;;;;;4993414;28;20387;-83
2023/12/31 04:14:14;;;;;;;82.80;45.53;;;8.90;99.90;;;;;;4977818;28;20084;-83
2023/12/31 04:16:42;;;;;;;81.75;46.60;;;8.90;99.90;;;;;;4995035;28;20042;-82
2023/12/31 04:19:09;;;;;;;83.15;48.83;;;8.90;99.90;;;;;;4979108;28;20026;-82
2023/12/31 04:21:35;;;;;;;90.93;50.63;;;8.80;99.90;;;;;;4992104;28;20034;-82
2023/12/31 04:24:01;;;;;;;89.43;51.85;;;8.80;99.90;;;;;;4959668;28;20034;-81
2023/12/31 04:26:28;;;;;;;83.57;47.53;;;8.70;99.90;;;;;;4978843;28;20031;-82
2023/12/31 04:28:57;;;;;;;90.50;51.58;;;8.80;99.90;;;;;;4978653;28;20069;-83
2023/12/31 04:31:23;;;;;;;84.72;47.80;;;8.80;99.90;;;;;;4977558;28;20361;-82
2023/12/31 04:33:52;;;;;;;83.47;48.75;;;8.70;99.90;;;;;;4975868;28;20046;-82
2023/12/31 04:36:19;;;;;;;87.85;49.28;;;8.70;99.90;;;;;;4974972;28;20030;-81
2023/12/31 04:38:47;;;;;;;78.00;48.08;;;8.60;99.90;;;;;;4959313;28;20142;-82
2023/12/31 04:41:22;;;;;;;87.25;48.63;;;8.60;99.90;;;;;;4959274;28;20464;-82
2023/12/31 04:43:49;;;;;;;76.47;46.38;;;8.50;99.90;;;;;;4962292;28;20042;-82
2023/12/31 04:46:19;;;;;;;85.18;49.53;;;8.50;99.90;;;;;;4974189;28;20085;-82
2023/12/31 04:48:47;;;;;;;90.80;51.70;;;8.40;99.90;;;;;;4991319;28;20030;-82
2023/12/31 04:51:26;;;;;;;92.30;51.33;;;8.40;99.90;;;;;;4959196;28;20027;-82
2023/12/31 04:53:55;;;;;;;83.20;48.90;;;8.40;99.90;;;;;;4975182;28;20030;-82
2023/12/31 04:56:23;;;;;;;94.47;53.22;;;8.40;99.90;;;;;;4982136;28;20022;-82
2023/12/31 04:58:50;;;;;;;92.85;52.15;;;8.30;99.90;;;;;;4978204;28;20507;-82
2023/12/31 05:01:20;;;;;;;98.85;53.47;;;8.30;99.90;;;;;;4978224;28;20031;-82
2023/12/31 05:03:49;;;;;;;94.20;50.55;;;8.30;99.90;;;;;;4977873;28;20073;-82
2023/12/31 05:06:15;;;;;;;83.70;50.05;;;8.20;99.90;;;;;;4978071;28;20111;-82
2023/12/31 05:08:44;;;;;;;79.55;49.08;;;8.10;99.90;;;;;;4995503;28;20056;-82
2023/12/31 05:11:12;;;;;;;88.07;49.72;;;8.10;99.90;;;;;;4977917;28;20447;-82
2023/12/31 05:13:40;;;;;;;84.22;49.25;;;8.00;99.90;;;;;;4960830;28;20030;-81
2023/12/31 05:16:14;;;;;;;97.43;51.72;;;8.00;99.90;;;;;;4965062;28;20018;-82
2023/12/31 05:18:41;;;;;;;;;;;8.00;99.90;;;;;;4994442;28;20041;-82
2023/12/31 05:21:07;;;;;;;88.22;48.63;;;8.00;99.90;;;;;;4977633;28;20306;-82
2023/12/31 05:23:33;;;;;;;87.47;47.45;;;7.90;99.90;;;;;;4961778;28;20035;-82
2023/12/31 05:26:03;;;;;;;82.63;48.17;;;7.80;99.90;;;;;;4962615;28;20015;-82
2023/12/31 05:28:29;;;;;;;79.45;48.92;;;7.80;99.90;;;;;;4993914;28;20373;-82
2023/12/31 05:30:56;;;;;;;78.20;47.13;;;7.70;99.90;;;;;;4977747;28;20053;-82
2023/12/31 05:33:22;;;;;;;84.22;49.00;;;7.70;99.90;;;;;;4994146;28;20037;-82
2023/12/31 05:35:49;;;;;;;81.50;47.42;;;7.70;99.90;;;;;;4977637;28;20543;-82
2023/12/31 05:38:16;;;;;;;82.60;48.80;;;7.70;99.90;;;;;;4977562;28;20129;-83
2023/12/31 05:40:43;;;;;;;85.22;47.60;;;7.70;99.90;;;;;;4961407;28;20058;-82
2023/12/31 05:43:10;;;;;;;83.53;46.17;;;7.70;99.90;;;;;;4993514;28;20396;-83
2023/12/31 05:45:37;;;;;;;79.72;45.63;;;7.60;99.90;;;;;;4977432;28;20023;-83
2023/12/31 05:48:04;;;;;;;81.95;46.88;;;7.60;99.90;;;;;;4977236;28;20404;-82
2023/12/31 05:50:30;;;;;;;86.53;50.30;;;7.50;99.90;;;;;;4977497;28;20027;-83
2023/12/31 05:52:57;;;;;;;86.03;48.75;;;7.40;99.90;;;;;;4977187;28;20088;-83
2023/12/31 05:55:23;;;;;;;98.25;50.90;;;7.40;99.90;;;;;;4977460;28;20495;-82
2023/12/31 05:57:53;;;;;;;91.90;48.90;;;7.40;99.90;;;;;;4962827;28;20035;-83
2023/12/31 06:00:20;;;;;;;79.63;47.63;;;7.40;99.90;;;;;;4957956;28;20026;-83
2023/12/31 06:02:47;;;;;;;87.57;49.58;;;7.40;99.90;;;;;;4957930;28;20041;-83
2023/12/31 06:05:13;;;;;;;81.07;46.88;;;7.30;99.90;;;;;;4958250;28;20039;-83
2023/12/31 06:07:39;;;;;;;91.85;50.72;;;7.30;99.90;;;;;;4957891;28;20113;-82
2023/12/31 06:10:06;;;;;;;85.80;47.95;;;7.20;99.90;;;;;;4976382;28;20034;-83
2023/12/31 06:12:32;;;;;;;91.72;50.53;;;7.20;99.90;;;;;;4994282;28;20022;-83
2023/12/31 06:15:06;;;;;;;99.07;51.63;;;7.20;99.90;;;;;;4976897;28;20361;-82
2023/12/31 06:17:36;;;;;;;83.03;48.33;;;7.30;99.90;;;;;;4989190;28;20037;-83
2023/12/31 06:20:04;;;;;;;84.82;46.88;;;7.30;99.90;;;;;;4976893;28;20030;-82
2023/12/31 06:22:31;;;;;;;88.18;47.85;;;7.30;99.90;;;;;;4976728;28;20106;-83
2023/12/31 06:25:04;;;;;;;85.32;46.63;;;7.30;99.90;;;;;;4993933;28;20022;-83
2023/12/31 06:27:31;;;;;;;83.63;48.08;;;7.30;99.90;;;;;;4994038;28;20049;-82
2023/12/31 06:29:57;;;;;;;84.57;48.13;;;7.40;99.90;;;;;;4976618;28;20061;-82
2023/12/31 06:32:23;;;;;;;79.80;46.83;;;7.40;99.90;;;;;;4991933;28;20041;-81
2023/12/31 06:34:50;;;;;;;75.80;45.20;;;7.40;99.90;;;;;;4973154;28;20057;-82
2023/12/31 06:37:16;;;;;;;78.95;45.28;;;7.30;99.90;;;;;;4989189;28;20035;-83
2023/12/31 06:39:43;;;;;;;74.10;44.90;;;7.40;99.90;;;;;;4973434;28;20027;-83
2023/12/31 06:42:10;;;;;;;79.15;47.20;;;7.40;99.90;;;;;;4962379;28;20031;-82
2023/12/31 06:44:36;;;;;;;81.25;45.95;;;7.30;99.90;;;;;;4953969;29;20027;-83
2023/12/31 06:47:03;;;;;;;89.60;50.80;;;7.30;99.90;;;;;;4966001;28;20476;-82
2023/12/31 06:49:29;;;;;;;82.45;48.80;;;7.30;99.90;;;;;;4973339;28;20035;-83
2023/12/31 06:51:56;;;;;;;75.97;45.45;;;7.30;99.90;;;;;;4972026;28;20057;-82
2023/12/31 06:54:22;;;;;;;82.53;47.40;;;7.40;99.90;;;;;;4970324;28;20393;-82
2023/12/31 06:56:48;;;;;;;72.60;44.00;;;7.30;99.90;;;;;;4963228;28;20038;-83
2023/12/31 06:59:15;;;;;;;74.68;44.65;;;7.40;99.90;;;;;;4989226;28;20113;-81
2023/12/31 07:01:41;;;;;;;85.38;50.40;;;7.30;99.90;;;;;;4984331;28;20035;-82
2023/12/31 07:04:11;;;;;;;82.45;47.80;;;7.30;99.90;;;;;;4953872;29;20438;-82
2023/12/31 07:06:37;;;;;;;96.10;50.03;;;7.40;99.90;;;;;;4953661;29;20031;-83
2023/12/31 07:09:03;;;;;;;81.35;46.63;;;7.40;99.90;;;;;;4953717;29;20027;-82
2023/12/31 07:11:29;;;;;;;84.30;47.13;;;7.50;99.90;;;;;;4955314;28;20382;-81
2023/12/31 07:13:56;;;;;;;82.63;50.33;;;7.60;99.90;;;;;;4955354;28;20027;-82
2023/12/31 07:16:22;;;;;;;88.80;51.60;;;7.70;99.90;;;;;;4958651;28;20034;-82
2023/12/31 07:18:48;;;;;;;76.72;46.42;;;7.90;99.90;;;;;;4972957;28;20054;-82
2023/12/31 07:21:24;;;;;;;85.68;50.33;;;8.00;99.90;;;;;;4988999;28;20054;-82
2023/12/31 07:23:51;;;;;;;85.68;49.90;;;8.00;99.90;;;;;;4986531;28;20074;-82
2023/12/31 07:26:28;;;;;;;79.63;45.22;;;8.00;99.90;;;;;;4956642;28;20476;-82
2023/12/31 07:28:55;;;;;;;86.82;49.58;;;8.00;99.90;;;;;;4988533;28;20532;-82
2023/12/31 07:31:22;;;;;;;86.15;48.13;;;8.00;99.90;;;;;;4972832;28;20027;-82
2023/12/31 07:33:48;;;;;;;83.28;48.85;;;8.00;99.90;;;;;;4972515;28;20038;-82
2023/12/31 07:36:15;;;;;;;84.85;49.97;;;8.10;99.90;;;;;;4973152;28;20503;-82
2023/12/31 07:38:43;;;;;;;89.38;51.13;;;8.10;99.90;;;;;;4972519;28;20117;-82
2023/12/31 07:41:13;;;;;;;79.63;48.60;;;8.10;99.90;;;;;;4972947;28;20015;-82
2023/12/31 07:43:41;;;;;;;88.97;50.03;;;8.20;99.90;;;;;;4969177;28;20134;-82
2023/12/31 07:46:09;;;;;;;81.85;48.85;;;8.30;99.90;;;;;;4953318;29;20053;-82
2023/12/31 07:48:35;;;;;;;86.55;50.10;;;8.40;99.90;;;;;;4953684;28;20039;-83
2023/12/31 07:51:03;;;;;;;80.82;49.47;;;8.60;99.90;;;;;;4966975;28;20027;-83
2023/12/31 07:53:33;;;;;;;79.13;47.92;;;8.70;99.90;;;;;;4977397;28;20029;-82
2023/12/31 07:55:59;;;;;;;77.53;48.30;;;8.80;99.90;;;;;;4992349;28;20050;-82
2023/12/31 07:58:27;;;;;;;80.28;47.05;;;9.10;99.90;;;;;;4977258;28;20599;-82
2023/12/31 08:00:55;;;;;;;76.53;49.10;;;9.20;99.90;;;;;;4976237;28;20392;-82
2023/12/31 08:03:21;;;;;;;81.15;50.17;;;9.40;99.90;;;;;;4988159;28;20131;-84
2023/12/31 08:05:48;;;;;;;72.78;48.10;;;9.60;99.90;;;;;;4956868;29;20038;-82
2023/12/31 08:08:15;;;;;;;71.45;45.22;;;9.60;99.90;;;;;;4957021;28;20031;-81
2023/12/31 08:10:42;;;;;;;76.15;46.15;;;9.60;99.90;;;;;;4956629;29;20059;-80
2023/12/31 08:13:09;;;;;;;66.68;47.40;;;9.80;99.90;;;;;;4957760;28;20492;-82
2023/12/31 08:15:35;;;;;;;74.07;48.38;;;9.70;99.90;;;;;;4956822;29;20031;-83
2023/12/31 08:18:05;;;;;;;70.18;48.53;;;9.70;99.90;;;;;;4974013;28;20116;-83
2023/12/31 08:20:33;;;;;;;77.85;51.17;;;9.70;99.90;;;;;;4976273;28;20030;-85
2023/12/31 08:23:06;;;;;;;80.85;53.53;;;9.80;99.90;;;;;;4976185;28;20045;-82
2023/12/31 08:25:32;;;;;;;81.95;54.50;;;9.80;99.90;;;;;;4975731;28;20387;-83
2023/12/31 08:27:59;;;;;;;94.75;60.83;;;9.90;99.90;;;;;;4976115;28;20034;-84
2023/12/31 08:30:25;;;;;;;90.07;58.50;;;9.90;99.90;;;;;;4991359;28;20031;-84
2023/12/31 08:33:00;;;;;;;89.68;57.03;;;10.00;99.90;;;;;;4987286;28;20030;-84
2023/12/31 08:35:26;;;;;;;85.85;56.42;;;10.20;99.90;;;;;;4958117;28;20054;-83
2023/12/31 08:37:52;;;;;;;86.72;55.95;;;10.40;99.90;;;;;;4952059;29;20039;-82
2023/12/31 08:40:19;;;;;;;82.88;56.10;;;10.50;99.90;;;;;;4972294;28;20449;-86
2023/12/31 08:42:46;;;;;;;87.88;58.95;;;10.70;99.90;;;;;;4970060;28;20035;-85
2023/12/31 08:45:18;;;;;;;69.88;51.22;;;10.90;99.90;;;;;;4972132;28;20027;-84
2023/12/31 08:47:45;;;;;;;74.20;52.38;;;11.00;99.90;;;;;;4967420;28;20515;-84
2023/12/31 08:50:11;;;;;;;81.13;52.78;;;11.10;99.90;;;;;;4963619;28;20032;-84
2023/12/31 08:52:44;;;;;;;75.70;51.85;;;11.10;99.90;;;;;;4952644;28;20083;-84
2023/12/31 08:55:11;;;;;;;77.32;50.78;;;11.30;99.90;;;;;;4937550;29;20546;-84
2023/12/31 08:57:42;;;;;;;83.50;54.28;;;11.40;99.90;;;;;;4936623;29;20504;-83
2023/12/31 09:00:19;;;;;;;69.63;47.58;;;11.60;99.90;;;;;;4936699;29;20040;-84
2023/12/31 09:02:48;;;;;;;73.20;50.50;;;11.80;99.90;;;;;;4941988;29;20103;-84
2023/12/31 09:05:18;;;;;;;72.90;48.35;;;12.00;99.90;;;;;;4937133;29;20560;-84
2023/12/31 09:07:45;;;;;;;66.13;46.42;;;12.10;99.90;;;;;;4952971;29;20110;-85
2023/12/31 09:10:11;;;;;;;71.35;50.72;;;12.20;99.90;;;;;;4937104;29;20019;-84
2023/12/31 09:12:38;;;;;;;70.60;48.33;;;12.30;99.90;;;;;;4954567;29;20027;-85
2023/12/31 09:15:07;;;;;;;53.72;42.13;;;12.40;99.90;;;;;;4972430;28;20078;-86
2023/12/31 09:17:35;;;;;;;50.88;38.45;;;12.50;99.90;;;;;;4965491;28;20114;-85
2023/12/31 09:20:22;;;;;;;53.65;38.17;;;12.50;99.90;;;;;;4972133;28;20453;-86
2023/12/31 09:22:52;;;;;;;47.58;37.83;;;12.60;99.90;;;;;;4940246;29;20036;-85
2023/12/31 09:25:22;;;;;;;47.33;37.63;;;12.70;99.90;;;;;;4936729;29;20032;-84
2023/12/31 09:27:49;;;;;;;45.13;37.17;;;12.60;99.90;;;;;;4936634;29;20063;-85
2023/12/31 09:30:15;;;;;;;57.90;43.35;;;12.70;99.90;;;;;;4937062;29;20031;-85
2023/12/31 09:32:43;;;;;;;45.33;35.03;;;12.80;99.90;;;;;;4936731;29;20027;-83
2023/12/31 09:35:10;;;;;;;40.70;33.50;;;12.80;99.90;;;;;;4967801;28;20079;-86
2023/12/31 09:37:36;;;;;;;41.85;33.72;;;12.90;99.90;;;;;;4958984;28;20031;-85
2023/12/31 09:40:04;;;;;;;43.63;35.55;;;12.90;99.90;;;;;;4958692;28;20023;-87
2023/12/31 09:42:52;;;;;;;44.65;35.00;;;13.00;99.90;;;;;;4974807;28;20114;-86
2023/12/31 09:45:24;;;;;;;44.25;34.75;;;13.10;99.90;;;;;;4975968;28;20031;-86
2023/12/31 09:47:55;;;;;;;44.50;33.88;;;13.20;99.90;;;;;;4978051;28;20026;-86
2023/12/31 09:50:39;;;;;;;40.63;32.08;;;13.30;99.90;;;;;;4978501;28;20121;-85
2023/12/31 09:53:10;;;;;;;38.65;31.30;;;13.50;99.90;;;;;;4978143;28;20027;-84
2023/12/31 09:55:39;;;;;;;36.65;32.33;;;13.60;99.90;;;;;;4977766;28;20084;-83
2023/12/31 09:58:10;;;;;;;34.22;30.75;;;13.80;99.90;;;;;;4977852;28;20029;-89
2023/12/31 10:00:36;;;;;;;36.75;29.85;;;14.00;99.90;;;;;;4965289;28;20069;-85
2023/12/31 10:03:06;;;;;;;33.08;29.45;;;14.20;99.90;;;;;;4958338;28;20091;-85
2023/12/31 10:05:36;;;;;;;35.88;31.88;;;14.30;99.90;;;;;;4958266;28;20085;-84
2023/12/31 10:08:05;;;;;;;33.15;29.73;;;14.30;99.90;;;;;;4958836;28;20104;-85
2023/12/31 10:10:35;;;;;;;34.15;29.30;;;14.50;99.90;;;;;;4977298;28;20031;-85
2023/12/31 10:13:10;;;;;;;32.60;29.13;;;14.50;99.90;;;;;;4977985;28;20023;-88
2023/12/31 10:15:36;;;;;;;39.33;32.67;;;14.60;99.90;;;;;;4979886;28;20037;-89
2023/12/31 10:18:04;;;;;;;35.22;31.60;;;14.60;99.90;;;;;;4993918;28;20018;-84
2023/12/31 10:20:31;;;;;;;37.92;32.92;;;14.70;99.90;;;;;;4974725;28;20042;-89
2023/12/31 10:23:01;;;;;;;38.50;33.00;;;14.80;99.90;;;;;;4958360;28;20033;-86
2023/12/31 10:25:28;;;;;;;35.67;30.58;;;14.90;99.90;;;;;;4958337;28;20038;-86
2023/12/31 10:27:56;;;;;;;35.08;31.10;;;14.80;99.90;;;;;;4958191;28;20476;-87
2023/12/31 10:30:23;;;;;;;34.25;30.17;;;14.90;99.90;;;;;;4975554;28;20034;-88
2023/12/31 10:32:55;;;;;;;33.65;30.27;;;15.00;99.90;;;;;;4978073;28;20022;-92
2023/12/31 10:35:27;;;;;;;32.13;28.80;;;15.00;99.90;;;;;;4965548;28;20405;-87
2023/12/31 10:38:06;;;;;;;32.05;28.60;;;15.10;99.90;;;;;;4935769;29;20030;-86
2023/12/31 10:40:34;;;;;;;34.38;30.83;;;15.20;99.90;;;;;;4935736;29;20031;-86
2023/12/31 10:43:03;;;;;;;37.53;31.85;;;15.20;99.90;;;;;;4927648;29;20389;-86
2023/12/31 10:46:06;;;;;;;35.92;32.10;;;15.30;99.90;;;;;;4938439;29;20485;-86
2023/12/31 10:48:57;;;;;;;30.15;27.40;;;15.40;99.90;;;;;;4951387;28;20040;-87
2023/12/31 10:51:24;;;;;;;32.95;29.63;;;15.20;99.90;;;;;;4951957;29;20028;-85
2023/12/31 10:53:54;;;;;;;33.45;30.15;;;15.20;99.90;;;;;;4948462;29;20424;-86
2023/12/31 10:56:21;;;;;;;32.35;28.90;;;15.30;99.90;;;;;;4941288;28;20035;-87
2023/12/31 10:58:53;;;;;;;32.65;29.45;;;15.20;99.90;;;;;;4973785;28;20027;-86
2023/12/31 11:01:41;;;;;;;30.63;27.90;;;15.10;99.90;;;;;;4990090;28;20027;-86
2023/12/31 11:04:12;;;;;;;32.38;29.05;;;15.00;99.90;;;;;;4958066;28;20401;-86
2023/12/31 11:06:40;;;;;;;30.98;28.33;;;15.10;99.90;;;;;;4958312;28;20055;-86
2023/12/31 11:09:09;;;;;;;30.95;28.23;;;15.20;99.90;;;;;;4974554;28;20077;-90
2023/12/31 11:11:36;;;;;;;29.88;27.15;;;15.30;99.90;;;;;;4974489;28;20085;-85
2023/12/31 11:14:06;;;;;;;30.85;28.25;;;15.40;99.90;;;;;;4965284;28;20024;-84
2023/12/31 11:17:01;;;;;;;32.25;29.30;;;15.30;99.90;;;;;;4941512;29;20038;-85
2023/12/31 11:19:54;;;;;;;30.33;27.73;;;15.40;99.90;;;;;;4970024;28;20081;-84
2023/12/31 11:22:36;;;;;;;31.35;28.30;;;15.80;99.90;;;;;;4945291;28;20098;-84
2023/12/31 11:25:04;;;;;;;29.92;27.13;;;15.90;99.90;;;;;;4940398;29;20046;-84
2023/12/31 11:27:36;;;;;;;29.33;26.52;;;15.80;99.90;;;;;;4981839;28;20024;-83
2023/12/31 11:30:07;;;;;;;27.40;25.08;;;15.80;99.90;;;;;;4991238;28;20039;-92
2023/12/31 11:32:36;;;;;;;25.73;23.42;;;15.60;99.90;;;;;;4929959;29;20443;-89
2023/12/31 11:35:06;;;;;;;24.92;22.65;;;15.40;99.90;;;;;;4928241;29;20130;-89
2023/12/31 11:37:40;;;;;;;25.50;23.38;;;15.30;99.90;;;;;;4912095;29;20036;-90
2023/12/31 11:40:07;;;;;;;25.77;23.58;;;15.30;99.90;;;;;;4919407;29;20528;-90
2023/12/31 11:42:36;;;;;;;24.88;22.67;;;15.20;99.90;;;;;;4927009;29;20492;-89
2023/12/31 11:45:03;;;;;;;27.38;24.90;;;15.10;99.90;;;;;;4922524;29;20115;-89
2023/12/31 11:47:32;;;;;;;25.00;22.88;;;15.10;99.90;;;;;;4922917;29;20035;-88
2023/12/31 11:49:58;;;;;;;24.38;22.20;;;15.20;99.90;;;;;;4922371;29;20032;-87
2023/12/31 11:52:43;;;;;;;25.27;23.17;;;15.20;99.90;;;;;;4922630;29;20401;-88
2023/12/31 11:55:12;;;;;;;26.00;23.55;;;15.20;99.90;;;;;;4938325;29;20087;-88
2023/12/31 11:57:39;;;;;;;26.02;23.90;;;15.30;99.90;;;;;;4938186;29;20059;-87
2023/12/31 12:00:08;;;;;;;25.60;23.25;;;15.30;99.90;;;;;;4942093;29;20035;-83
2023/12/31 12:02:35;;;;;;;24.20;22.30;;;15.20;99.90;;;;;;4960751;28;20388;-85
2023/12/31 12:05:02;;;;;;;24.25;22.23;;;15.20;99.90;;;;;;5012550;28;20030;-83
2023/12/31 12:07:29;;;;;;;24.83;22.55;;;15.10;99.90;;;;;;4996338;28;20487;-85
2023/12/31 12:09:56;;;;;;;24.95;22.48;;;15.10;99.90;;;;;;4983422;28;20121;-86
2023/12/31 12:12:22;;;;;;;24.73;22.50;;;15.00;99.90;;;;;;4957846;29;20032;-88
2023/12/31 12:14:51;;;;;;;25.45;22.95;;;15.00;99.90;;;;;;4957398;29;20047;-88
2023/12/31 12:17:17;;;;;;;26.00;23.38;;;15.00;99.90;;;;;;4965563;28;20034;-91
2023/12/31 12:19:46;;;;;;;25.90;23.52;;;15.00;99.90;;;;;;4993922;28;20117;-89
2023/12/31 12:22:14;;;;;;;27.88;25.25;;;15.00;99.90;;;;;;4976872;28;20023;-91
2023/12/31 12:24:41;;;;;;;25.98;23.27;;;15.00;99.90;;;;;;4993061;28;20404;-87
2023/12/31 12:27:10;;;;;;;25.08;22.77;;;14.90;99.90;;;;;;4973167;28;20420;-91
2023/12/31 12:29:37;;;;;;;24.20;22.10;;;14.90;99.90;;;;;;4977414;28;20039;-87
2023/12/31 12:32:06;;;;;;;24.98;22.65;;;14.80;99.90;;;;;;4978774;28;20484;-88
2023/12/31 12:34:33;;;;;;;25.17;22.90;;;14.80;99.90;;;;;;4958566;28;20516;-92
2023/12/31 12:37:02;;;;;;;25.15;22.88;;;14.80;99.90;;;;;;4959673;28;20030;-90
2023/12/31 12:39:28;;;;;;;25.05;22.75;;;14.80;99.90;;;;;;4958855;28;20024;-89